sensor_id;sensor_type;location;lat;lon;timestamp;temperature;humidity
49465;DHT22;35358;49.342;8.802;2023-03-30T00:00:12;10.40;99.90
49465;DHT22;35358;49.342;8.802;2023-03-30T00:02:44;10.40;99.90
49465;DHT22;35358;49.342;8.802;2023-03-30T00:05:09;10.50;99.90
49465;DHT22;35358;49.342;8.802;2023-03-30T00:07:37;10.40;99.90
49465;DHT22;35358;49.342;8.802;2023-03-30T00:10:14;10.50;99.90
49465;DHT22;35358;49.342;8.802;2023-03-30T00:12:44;10.70;99.90
49465;DHT22;35358;49.342;8.802;2023-03-30T00:15:13;10.70;99.90
49465;DHT22;35358;49.342;8.802;2023-03-30T00:17:39;10.60;99.90
49465;DHT22;35358;49.342;8.802;2023-03-30T00:20:09;10.40;99.90
49465;DHT22;35358;49.342;8.802;2023-03-30T00:22:40;10.30;99.90
49465;DHT22;35358;49.342;8.802;2023-03-30T00:25:07;10.20;99.90
49465;DHT22;35358;49.342;8.802;2023-03-30T00:27:36;10.20;99.90
49465;DHT22;35358;49.342;8.802;2023-03-30T00:30:12;10.10;99.90
49465;DHT22;35358;49.342;8.802;2023-03-30T00:32:40;9.80;99.90
49465;DHT22;35358;49.342;8.802;2023-03-30T00:35:08;9.90;99.90
49465;DHT22;35358;49.342;8.802;2023-03-30T00:37:37;10.00;99.90
49465;DHT22;35358;49.342;8.802;2023-03-30T00:40:08;10.10;99.90
49465;DHT22;35358;49.342;8.802;2023-03-30T00:42:35;10.20;99.90
49465;DHT22;35358;49.342;8.802;2023-03-30T00:50:18;10.20;99.90
49465;DHT22;35358;49.342;8.802;2023-03-30T00:52:49;10.20;99.90
49465;DHT22;35358;49.342;8.802;2023-03-30T00:55:21;10.20;99.90
49465;DHT22;35358;49.342;8.802;2023-03-30T00:57:49;10.10;99.90
49465;DHT22;35358;49.342;8.802;2023-03-30T01:00:18;10.10;99.90
49465;DHT22;35358;49.342;8.802;2023-03-30T01:02:49;10.10;99.90
49465;DHT22;35358;49.342;8.802;2023-03-30T01:05:20;10.10;99.90
49465;DHT22;35358;49.342;8.802;2023-03-30T01:07:48;10.10;99.90
49465;DHT22;35358;49.342;8.802;2023-03-30T01:10:14;10.00;99.90
49465;DHT22;35358;49.342;8.802;2023-03-30T01:12:43;10.00;99.90
49465;DHT22;35358;49.342;8.802;2023-03-30T01:15:09;9.90;99.90
49465;DHT22;35358;49.342;8.802;2023-03-30T01:17:48;9.90;99.90
49465;DHT22;35358;49.342;8.802;2023-03-30T01:20:26;9.90;99.90
49465;DHT22;35358;49.342;8.802;2023-03-30T01:26:35;9.90;99.90
49465;DHT22;35358;49.342;8.802;2023-03-30T01:37:45;9.90;99.90
49465;DHT22;35358;49.342;8.802;2023-03-30T01:42:55;9.90;99.90
49465;DHT22;35358;49.342;8.802;2023-03-30T01:48:00;9.80;99.90
49465;DHT22;35358;49.342;8.802;2023-03-30T01:50:49;9.80;99.90
49465;DHT22;35358;49.342;8.802;2023-03-30T01:53:24;9.80;99.90
49465;DHT22;35358;49.342;8.802;2023-03-30T01:55:59;9.90;99.90
49465;DHT22;35358;49.342;8.802;2023-03-30T01:58:41;9.90;99.90
49465;DHT22;35358;49.342;8.802;2023-03-30T02:01:09;9.90;99.90
49465;DHT22;35358;49.342;8.802;2023-03-30T02:03:40;9.90;99.90
49465;DHT22;35358;49.342;8.802;2023-03-30T02:08:49;9.90;99.90
49465;DHT22;35358;49.342;8.802;2023-03-30T02:11:17;9.90;99.90
49465;DHT22;35358;49.342;8.802;2023-03-30T02:13:43;9.90;99.90
49465;DHT22;35358;49.342;8.802;2023-03-30T02:16:15;10.10;99.90
49465;DHT22;35358;49.342;8.802;2023-03-30T02:18:42;10.10;99.90
49465;DHT22;35358;49.342;8.802;2023-03-30T02:21:13;10.10;99.90
49465;DHT22;35358;49.342;8.802;2023-03-30T02:23:43;10.00;99.90
49465;DHT22;35358;49.342;8.802;2023-03-30T02:26:12;10.00;99.90
49465;DHT22;35358;49.342;8.802;2023-03-30T02:28:42;10.10;99.90
49465;DHT22;35358;49.342;8.802;2023-03-30T02:31:12;10.10;99.90
49465;DHT22;35358;49.342;8.802;2023-03-30T02:37:03;9.90;99.90
49465;DHT22;35358;49.342;8.802;2023-03-30T02:45:22;10.00;99.90
49465;DHT22;35358;49.342;8.802;2023-03-30T02:50:57;9.90;99.90
49465;DHT22;35358;49.342;8.802;2023-03-30T02:53:44;10.00;99.90
49465;DHT22;35358;49.342;8.802;2023-03-30T02:56:20;10.00;99.90
49465;DHT22;35358;49.342;8.802;2023-03-30T02:58:55;9.90;99.90
49465;DHT22;35358;49.342;8.802;2023-03-30T03:01:54;9.90;99.90
49465;DHT22;35358;49.342;8.802;2023-03-30T03:04:23;9.80;99.90
49465;DHT22;35358;49.342;8.802;2023-03-30T03:06:50;9.90;99.90
49465;DHT22;35358;49.342;8.802;2023-03-30T03:09:20;9.90;99.90
49465;DHT22;35358;49.342;8.802;2023-03-30T03:11:49;10.00;99.90
49465;DHT22;35358;49.342;8.802;2023-03-30T03:14:17;10.00;99.90
49465;DHT22;35358;49.342;8.802;2023-03-30T03:16:43;10.00;99.90
49465;DHT22;35358;49.342;8.802;2023-03-30T03:19:09;10.00;99.90
49465;DHT22;35358;49.342;8.802;2023-03-30T03:21:37;10.00;99.90
49465;DHT22;35358;49.342;8.802;2023-03-30T03:24:03;10.00;99.90
49465;DHT22;35358;49.342;8.802;2023-03-30T03:26:29;9.90;99.90
49465;DHT22;35358;49.342;8.802;2023-03-30T03:28:55;10.00;99.90
49465;DHT22;35358;49.342;8.802;2023-03-30T03:31:20;10.10;99.90
49465;DHT22;35358;49.342;8.802;2023-03-30T03:33:46;10.00;99.90
49465;DHT22;35358;49.342;8.802;2023-03-30T03:36:12;10.00;99.90
49465;DHT22;35358;49.342;8.802;2023-03-30T03:38:38;9.90;99.90
49465;DHT22;35358;49.342;8.802;2023-03-30T03:41:03;10.00;99.90
49465;DHT22;35358;49.342;8.802;2023-03-30T03:43:31;10.00;99.90
49465;DHT22;35358;49.342;8.802;2023-03-30T03:46:02;10.00;99.90
49465;DHT22;35358;49.342;8.802;2023-03-30T03:48:27;10.00;99.90
49465;DHT22;35358;49.342;8.802;2023-03-30T03:50:57;10.00;99.90
49465;DHT22;35358;49.342;8.802;2023-03-30T03:53:24;9.90;99.90
49465;DHT22;35358;49.342;8.802;2023-03-30T03:55:50;9.90;99.90
49465;DHT22;35358;49.342;8.802;2023-03-30T03:58:17;10.00;99.90
49465;DHT22;35358;49.342;8.802;2023-03-30T04:00:45;9.90;99.90
49465;DHT22;35358;49.342;8.802;2023-03-30T04:03:14;10.00;99.90
49465;DHT22;35358;49.342;8.802;2023-03-30T04:05:39;9.90;99.90
49465;DHT22;35358;49.342;8.802;2023-03-30T04:08:06;9.90;99.90
49465;DHT22;35358;49.342;8.802;2023-03-30T04:10:36;10.10;99.90
49465;DHT22;35358;49.342;8.802;2023-03-30T04:13:05;10.10;99.90
49465;DHT22;35358;49.342;8.802;2023-03-30T04:15:31;10.00;99.90
49465;DHT22;35358;49.342;8.802;2023-03-30T04:17:56;10.00;99.90
49465;DHT22;35358;49.342;8.802;2023-03-30T04:20:26;10.10;99.90
49465;DHT22;35358;49.342;8.802;2023-03-30T04:22:52;10.10;99.90
49465;DHT22;35358;49.342;8.802;2023-03-30T04:25:19;10.20;99.90
49465;DHT22;35358;49.342;8.802;2023-03-30T04:27:48;10.10;99.90
49465;DHT22;35358;49.342;8.802;2023-03-30T04:30:17;10.00;99.90
49465;DHT22;35358;49.342;8.802;2023-03-30T04:32:46;9.90;99.90
49465;DHT22;35358;49.342;8.802;2023-03-30T04:35:19;10.00;99.90
49465;DHT22;35358;49.342;8.802;2023-03-30T04:37:45;10.00;99.90
49465;DHT22;35358;49.342;8.802;2023-03-30T04:40:11;10.00;99.90
49465;DHT22;35358;49.342;8.802;2023-03-30T04:42:38;10.10;99.90
49465;DHT22;35358;49.342;8.802;2023-03-30T04:45:07;10.10;99.90
49465;DHT22;35358;49.342;8.802;2023-03-30T04:47:33;9.90;99.90
49465;DHT22;35358;49.342;8.802;2023-03-30T04:50:01;9.90;99.90
49465;DHT22;35358;49.342;8.802;2023-03-30T04:52:27;9.90;99.90
49465;DHT22;35358;49.342;8.802;2023-03-30T04:54:53;9.90;99.90
49465;DHT22;35358;49.342;8.802;2023-03-30T04:57:19;9.90;99.90
49465;DHT22;35358;49.342;8.802;2023-03-30T04:59:44;9.90;99.90
49465;DHT22;35358;49.342;8.802;2023-03-30T05:02:11;9.90;99.90
49465;DHT22;35358;49.342;8.802;2023-03-30T05:04:40;9.90;99.90
49465;DHT22;35358;49.342;8.802;2023-03-30T05:07:06;9.90;99.90
49465;DHT22;35358;49.342;8.802;2023-03-30T05:09:32;10.00;99.90
49465;DHT22;35358;49.342;8.802;2023-03-30T05:11:58;10.10;99.90
49465;DHT22;35358;49.342;8.802;2023-03-30T05:14:26;10.20;99.90
49465;DHT22;35358;49.342;8.802;2023-03-30T05:16:54;10.10;99.90
49465;DHT22;35358;49.342;8.802;2023-03-30T05:19:20;10.20;99.90
49465;DHT22;35358;49.342;8.802;2023-03-30T05:21:46;10.20;99.90
49465;DHT22;35358;49.342;8.802;2023-03-30T05:24:12;10.20;99.90
49465;DHT22;35358;49.342;8.802;2023-03-30T05:26:38;10.10;99.90
49465;DHT22;35358;49.342;8.802;2023-03-30T05:29:03;10.10;99.90
49465;DHT22;35358;49.342;8.802;2023-03-30T05:31:31;10.10;99.90
49465;DHT22;35358;49.342;8.802;2023-03-30T05:33:57;10.00;99.90
49465;DHT22;35358;49.342;8.802;2023-03-30T05:36:25;10.50;99.90
49465;DHT22;35358;49.342;8.802;2023-03-30T05:38:53;10.50;99.90
49465;DHT22;35358;49.342;8.802;2023-03-30T05:41:18;10.70;99.90
49465;DHT22;35358;49.342;8.802;2023-03-30T05:43:44;10.40;99.90
49465;DHT22;35358;49.342;8.802;2023-03-30T05:46:12;10.40;99.90
49465;DHT22;35358;49.342;8.802;2023-03-30T05:48:40;10.40;99.90
49465;DHT22;35358;49.342;8.802;2023-03-30T05:51:06;10.40;99.90
49465;DHT22;35358;49.342;8.802;2023-03-30T05:53:32;10.40;99.90
49465;DHT22;35358;49.342;8.802;2023-03-30T05:55:57;10.50;99.90
49465;DHT22;35358;49.342;8.802;2023-03-30T05:58:23;10.50;99.90
49465;DHT22;35358;49.342;8.802;2023-03-30T06:00:48;10.50;99.90
49465;DHT22;35358;49.342;8.802;2023-03-30T06:03:14;10.30;99.90
49465;DHT22;35358;49.342;8.802;2023-03-30T06:05:43;10.30;99.90
49465;DHT22;35358;49.342;8.802;2023-03-30T06:08:12;10.30;99.90
49465;DHT22;35358;49.342;8.802;2023-03-30T06:10:37;10.30;99.90
49465;DHT22;35358;49.342;8.802;2023-03-30T06:13:04;10.30;99.90
49465;DHT22;35358;49.342;8.802;2023-03-30T06:15:30;10.30;99.90
49465;DHT22;35358;49.342;8.802;2023-03-30T06:17:56;10.30;99.90
49465;DHT22;35358;49.342;8.802;2023-03-30T06:20:23;10.40;99.90
49465;DHT22;35358;49.342;8.802;2023-03-30T06:22:50;10.40;99.90
49465;DHT22;35358;49.342;8.802;2023-03-30T06:25:17;10.50;99.90
49465;DHT22;35358;49.342;8.802;2023-03-30T06:27:45;10.70;99.90
49465;DHT22;35358;49.342;8.802;2023-03-30T06:30:12;10.80;99.90
49465;DHT22;35358;49.342;8.802;2023-03-30T06:32:37;10.80;99.90
49465;DHT22;35358;49.342;8.802;2023-03-30T06:35:04;10.90;99.90
49465;DHT22;35358;49.342;8.802;2023-03-30T06:37:33;11.10;99.90
49465;DHT22;35358;49.342;8.802;2023-03-30T06:40:03;11.10;99.90
49465;DHT22;35358;49.342;8.802;2023-03-30T06:42:39;11.20;99.90
49465;DHT22;35358;49.342;8.802;2023-03-30T06:45:05;11.40;99.90
49465;DHT22;35358;49.342;8.802;2023-03-30T06:47:31;11.50;99.90
49465;DHT22;35358;49.342;8.802;2023-03-30T06:49:56;11.40;99.90
49465;DHT22;35358;49.342;8.802;2023-03-30T06:52:22;11.40;99.90
49465;DHT22;35358;49.342;8.802;2023-03-30T06:54:47;11.40;99.90
49465;DHT22;35358;49.342;8.802;2023-03-30T06:57:16;11.50;99.90
49465;DHT22;35358;49.342;8.802;2023-03-30T06:59:41;11.50;99.90
49465;DHT22;35358;49.342;8.802;2023-03-30T07:02:14;11.60;99.90
49465;DHT22;35358;49.342;8.802;2023-03-30T07:04:40;11.60;99.90
49465;DHT22;35358;49.342;8.802;2023-03-30T07:07:05;11.60;99.90
49465;DHT22;35358;49.342;8.802;2023-03-30T07:09:31;11.60;99.90
49465;DHT22;35358;49.342;8.802;2023-03-30T07:11:59;11.70;99.90
49465;DHT22;35358;49.342;8.802;2023-03-30T07:14:24;11.70;99.90
49465;DHT22;35358;49.342;8.802;2023-03-30T07:16:50;11.80;99.90
49465;DHT22;35358;49.342;8.802;2023-03-30T07:19:18;11.80;99.90
49465;DHT22;35358;49.342;8.802;2023-03-30T07:21:43;11.80;99.90
49465;DHT22;35358;49.342;8.802;2023-03-30T07:24:09;11.80;99.90
49465;DHT22;35358;49.342;8.802;2023-03-30T07:26:40;11.80;99.90
49465;DHT22;35358;49.342;8.802;2023-03-30T07:29:08;11.80;99.90
49465;DHT22;35358;49.342;8.802;2023-03-30T07:31:36;11.80;99.90
49465;DHT22;35358;49.342;8.802;2023-03-30T07:34:04;11.80;99.90
49465;DHT22;35358;49.342;8.802;2023-03-30T07:36:29;11.80;99.90
49465;DHT22;35358;49.342;8.802;2023-03-30T07:38:57;11.70;99.90
49465;DHT22;35358;49.342;8.802;2023-03-30T07:41:24;11.60;99.90
49465;DHT22;35358;49.342;8.802;2023-03-30T07:43:52;11.60;99.90
49465;DHT22;35358;49.342;8.802;2023-03-30T07:46:20;11.50;99.90
49465;DHT22;35358;49.342;8.802;2023-03-30T07:48:45;11.60;99.90
49465;DHT22;35358;49.342;8.802;2023-03-30T07:51:12;11.60;99.90
49465;DHT22;35358;49.342;8.802;2023-03-30T07:53:38;11.60;99.90
49465;DHT22;35358;49.342;8.802;2023-03-30T07:56:05;11.70;99.90
49465;DHT22;35358;49.342;8.802;2023-03-30T07:58:33;11.70;99.90
49465;DHT22;35358;49.342;8.802;2023-03-30T08:00:59;11.80;99.90
49465;DHT22;35358;49.342;8.802;2023-03-30T08:03:29;11.80;99.90
49465;DHT22;35358;49.342;8.802;2023-03-30T08:06:00;11.80;99.90
49465;DHT22;35358;49.342;8.802;2023-03-30T08:08:31;11.80;99.90
49465;DHT22;35358;49.342;8.802;2023-03-30T08:10:56;11.80;99.90
49465;DHT22;35358;49.342;8.802;2023-03-30T08:13:22;11.80;99.90
49465;DHT22;35358;49.342;8.802;2023-03-30T08:15:52;11.90;99.90
49465;DHT22;35358;49.342;8.802;2023-03-30T08:18:19;12.00;99.90
49465;DHT22;35358;49.342;8.802;2023-03-30T08:20:50;12.10;99.90
49465;DHT22;35358;49.342;8.802;2023-03-30T08:23:16;12.10;99.90
49465;DHT22;35358;49.342;8.802;2023-03-30T08:25:44;12.20;99.90
49465;DHT22;35358;49.342;8.802;2023-03-30T08:28:10;12.30;99.90
49465;DHT22;35358;49.342;8.802;2023-03-30T08:30:38;12.40;99.90
49465;DHT22;35358;49.342;8.802;2023-03-30T08:33:06;12.50;99.90
49465;DHT22;35358;49.342;8.802;2023-03-30T08:35:33;12.60;99.90
49465;DHT22;35358;49.342;8.802;2023-03-30T08:37:59;12.70;99.90
49465;DHT22;35358;49.342;8.802;2023-03-30T08:40:24;12.70;99.90
49465;DHT22;35358;49.342;8.802;2023-03-30T08:45:53;12.70;99.90
49465;DHT22;35358;49.342;8.802;2023-03-30T08:48:22;12.80;99.90
49465;DHT22;35358;49.342;8.802;2023-03-30T08:51:01;12.80;99.90
49465;DHT22;35358;49.342;8.802;2023-03-30T08:53:31;12.80;99.90
49465;DHT22;35358;49.342;8.802;2023-03-30T08:56:03;12.90;99.90
49465;DHT22;35358;49.342;8.802;2023-03-30T09:09:24;13.00;99.90
49465;DHT22;35358;49.342;8.802;2023-03-30T09:11:56;13.00;99.90
49465;DHT22;35358;49.342;8.802;2023-03-30T09:14:33;13.00;99.90
49465;DHT22;35358;49.342;8.802;2023-03-30T09:17:09;13.00;99.90
49465;DHT22;35358;49.342;8.802;2023-03-30T09:19:59;13.00;99.90
49465;DHT22;35358;49.342;8.802;2023-03-30T09:22:31;13.00;99.90
49465;DHT22;35358;49.342;8.802;2023-03-30T09:24:57;13.00;99.90
49465;DHT22;35358;49.342;8.802;2023-03-30T09:29:53;13.00;99.90
49465;DHT22;35358;49.342;8.802;2023-03-30T09:32:32;13.00;99.90
49465;DHT22;35358;49.342;8.802;2023-03-30T09:35:05;13.00;99.90
49465;DHT22;35358;49.342;8.802;2023-03-30T09:37:37;13.00;99.90
49465;DHT22;35358;49.342;8.802;2023-03-30T09:40:30;13.00;99.90
49465;DHT22;35358;49.342;8.802;2023-03-30T09:43:33;13.00;99.90
49465;DHT22;35358;49.342;8.802;2023-03-30T09:46:04;13.00;99.90
49465;DHT22;35358;49.342;8.802;2023-03-30T09:48:38;13.10;99.90
49465;DHT22;35358;49.342;8.802;2023-03-30T09:51:23;13.20;99.90
49465;DHT22;35358;49.342;8.802;2023-03-30T09:54:00;13.20;99.90
49465;DHT22;35358;49.342;8.802;2023-03-30T09:56:42;13.20;99.90
49465;DHT22;35358;49.342;8.802;2023-03-30T09:59:31;13.20;99.90
49465;DHT22;35358;49.342;8.802;2023-03-30T10:02:26;13.30;99.90
49465;DHT22;35358;49.342;8.802;2023-03-30T10:04:54;13.30;99.90
49465;DHT22;35358;49.342;8.802;2023-03-30T10:10:00;13.40;99.90
49465;DHT22;35358;49.342;8.802;2023-03-30T10:12:28;13.50;99.90
49465;DHT22;35358;49.342;8.802;2023-03-30T10:14:56;13.50;99.90
49465;DHT22;35358;49.342;8.802;2023-03-30T10:17:25;13.40;99.90
49465;DHT22;35358;49.342;8.802;2023-03-30T10:23:00;13.60;99.90
49465;DHT22;35358;49.342;8.802;2023-03-30T10:25:32;13.60;99.90
49465;DHT22;35358;49.342;8.802;2023-03-30T10:28:04;13.70;99.90
49465;DHT22;35358;49.342;8.802;2023-03-30T10:30:39;13.70;99.90
49465;DHT22;35358;49.342;8.802;2023-03-30T10:33:08;13.70;99.90
49465;DHT22;35358;49.342;8.802;2023-03-30T10:35:36;13.70;99.90
49465;DHT22;35358;49.342;8.802;2023-03-30T10:38:04;13.90;99.90
49465;DHT22;35358;49.342;8.802;2023-03-30T10:40:34;13.80;99.90
49465;DHT22;35358;49.342;8.802;2023-03-30T10:43:02;13.80;99.90
49465;DHT22;35358;49.342;8.802;2023-03-30T10:45:36;13.80;99.90
49465;DHT22;35358;49.342;8.802;2023-03-30T10:56:49;14.30;99.90
49465;DHT22;35358;49.342;8.802;2023-03-30T11:07:32;14.30;99.90
49465;DHT22;35358;49.342;8.802;2023-03-30T11:10:06;14.40;99.90
49465;DHT22;35358;49.342;8.802;2023-03-30T11:12:44;14.40;99.90
49465;DHT22;35358;49.342;8.802;2023-03-30T11:15:17;14.50;99.90
49465;DHT22;35358;49.342;8.802;2023-03-30T11:17:54;14.50;99.90
49465;DHT22;35358;49.342;8.802;2023-03-30T11:20:34;14.50;99.90
49465;DHT22;35358;49.342;8.802;2023-03-30T11:25:35;14.60;99.90
49465;DHT22;35358;49.342;8.802;2023-03-30T11:31:13;14.80;99.90
49465;DHT22;35358;49.342;8.802;2023-03-30T11:33:52;14.80;99.90
49465;DHT22;35358;49.342;8.802;2023-03-30T11:36:41;14.80;99.90
49465;DHT22;35358;49.342;8.802;2023-03-30T11:39:13;14.90;99.90
49465;DHT22;35358;49.342;8.802;2023-03-30T11:41:49;15.10;99.90
49465;DHT22;35358;49.342;8.802;2023-03-30T11:44:19;15.20;99.90
49465;DHT22;35358;49.342;8.802;2023-03-30T11:47:03;15.50;99.90
49465;DHT22;35358;49.342;8.802;2023-03-30T11:49:52;15.80;99.90
49465;DHT22;35358;49.342;8.802;2023-03-30T11:55:26;15.80;99.90
49465;DHT22;35358;49.342;8.802;2023-03-30T12:01:08;16.10;99.90
49465;DHT22;35358;49.342;8.802;2023-03-30T12:03:41;16.30;99.90
49465;DHT22;35358;49.342;8.802;2023-03-30T12:12:15;15.90;99.90
49465;DHT22;35358;49.342;8.802;2023-03-30T12:14:38;15.70;99.90
49465;DHT22;35358;49.342;8.802;2023-03-30T12:17:22;15.60;99.90
49465;DHT22;35358;49.342;8.802;2023-03-30T12:22:49;15.40;99.90
49465;DHT22;35358;49.342;8.802;2023-03-30T12:28:23;15.30;99.90
49465;DHT22;35358;49.342;8.802;2023-03-30T12:30:58;15.40;99.90
49465;DHT22;35358;49.342;8.802;2023-03-30T12:33:33;15.40;99.90
49465;DHT22;35358;49.342;8.802;2023-03-30T12:36:19;15.50;99.90
49465;DHT22;35358;49.342;8.802;2023-03-30T12:38:53;15.50;99.90
49465;DHT22;35358;49.342;8.802;2023-03-30T12:41:24;15.50;99.90
49465;DHT22;35358;49.342;8.802;2023-03-30T12:46:54;15.50;99.90
49465;DHT22;35358;49.342;8.802;2023-03-30T12:52:11;15.50;99.90
49465;DHT22;35358;49.342;8.802;2023-03-30T12:55:18;15.40;99.90
49465;DHT22;35358;49.342;8.802;2023-03-30T12:58:23;15.50;99.90
49465;DHT22;35358;49.342;8.802;2023-03-30T13:03:50;15.40;99.90
49465;DHT22;35358;49.342;8.802;2023-03-30T13:06:29;15.50;99.90
49465;DHT22;35358;49.342;8.802;2023-03-30T13:14:25;15.50;99.90
49465;DHT22;35358;49.342;8.802;2023-03-30T13:22:23;14.50;99.90
49465;DHT22;35358;49.342;8.802;2023-03-30T13:25:01;14.80;99.90
49465;DHT22;35358;49.342;8.802;2023-03-30T13:27:33;15.20;99.90
49465;DHT22;35358;49.342;8.802;2023-03-30T13:30:04;15.30;99.90
49465;DHT22;35358;49.342;8.802;2023-03-30T13:33:08;15.70;99.90
49465;DHT22;35358;49.342;8.802;2023-03-30T13:38:39;16.60;99.90
49465;DHT22;35358;49.342;8.802;2023-03-30T13:46:52;16.80;99.90
49465;DHT22;35358;49.342;8.802;2023-03-30T13:52:17;17.30;99.90
49465;DHT22;35358;49.342;8.802;2023-03-30T13:54:46;17.70;99.90
49465;DHT22;35358;49.342;8.802;2023-03-30T13:57:26;17.80;99.90
49465;DHT22;35358;49.342;8.802;2023-03-30T14:00:02;17.80;99.90
49465;DHT22;35358;49.342;8.802;2023-03-30T14:02:29;18.00;99.90
49465;DHT22;35358;49.342;8.802;2023-03-30T14:05:20;18.10;99.90
49465;DHT22;35358;49.342;8.802;2023-03-30T14:07:48;18.10;99.90
49465;DHT22;35358;49.342;8.802;2023-03-30T14:10:20;18.20;99.90
49465;DHT22;35358;49.342;8.802;2023-03-30T14:12:48;18.30;99.90
49465;DHT22;35358;49.342;8.802;2023-03-30T14:15:24;18.10;99.90
49465;DHT22;35358;49.342;8.802;2023-03-30T14:17:57;18.10;99.90
49465;DHT22;35358;49.342;8.802;2023-03-30T14:25:59;18.10;99.90
49465;DHT22;35358;49.342;8.802;2023-03-30T14:28:27;18.30;99.90
49465;DHT22;35358;49.342;8.802;2023-03-30T14:30:58;18.70;99.90
49465;DHT22;35358;49.342;8.802;2023-03-30T14:33:27;18.20;99.90
49465;DHT22;35358;49.342;8.802;2023-03-30T14:35:55;18.30;99.90
49465;DHT22;35358;49.342;8.802;2023-03-30T14:38:40;18.20;99.90
49465;DHT22;35358;49.342;8.802;2023-03-30T14:41:13;18.30;99.90
49465;DHT22;35358;49.342;8.802;2023-03-30T14:43:41;18.20;99.90
49465;DHT22;35358;49.342;8.802;2023-03-30T14:46:11;18.20;99.90
49465;DHT22;35358;49.342;8.802;2023-03-30T14:48:43;18.00;99.90
49465;DHT22;35358;49.342;8.802;2023-03-30T14:51:34;17.80;99.90
49465;DHT22;35358;49.342;8.802;2023-03-30T14:54:05;18.30;99.90
49465;DHT22;35358;49.342;8.802;2023-03-30T14:56:32;18.60;99.90
49465;DHT22;35358;49.342;8.802;2023-03-30T14:59:00;17.90;99.90
49465;DHT22;35358;49.342;8.802;2023-03-30T15:01:28;17.60;99.90
49465;DHT22;35358;49.342;8.802;2023-03-30T15:04:07;17.40;99.90
49465;DHT22;35358;49.342;8.802;2023-03-30T15:06:37;17.20;99.90
49465;DHT22;35358;49.342;8.802;2023-03-30T15:09:08;17.00;99.90
49465;DHT22;35358;49.342;8.802;2023-03-30T15:11:37;16.90;99.90
49465;DHT22;35358;49.342;8.802;2023-03-30T15:14:06;17.10;99.90
49465;DHT22;35358;49.342;8.802;2023-03-30T15:16:34;17.30;99.90
49465;DHT22;35358;49.342;8.802;2023-03-30T15:22:02;17.90;99.90
49465;DHT22;35358;49.342;8.802;2023-03-30T15:24:33;18.00;99.90
49465;DHT22;35358;49.342;8.802;2023-03-30T15:27:03;18.00;99.90
49465;DHT22;35358;49.342;8.802;2023-03-30T15:29:30;18.20;99.90
49465;DHT22;35358;49.342;8.802;2023-03-30T15:34:31;18.10;99.90
49465;DHT22;35358;49.342;8.802;2023-03-30T15:36:59;18.20;99.90
49465;DHT22;35358;49.342;8.802;2023-03-30T15:39:28;18.10;99.90
49465;DHT22;35358;49.342;8.802;2023-03-30T15:42:08;18.10;99.90
49465;DHT22;35358;49.342;8.802;2023-03-30T15:44:38;17.80;99.90
49465;DHT22;35358;49.342;8.802;2023-03-30T15:47:16;18.00;99.90
49465;DHT22;35358;49.342;8.802;2023-03-30T15:49:45;17.90;99.90
49465;DHT22;35358;49.342;8.802;2023-03-30T15:54:55;18.00;99.90
49465;DHT22;35358;49.342;8.802;2023-03-30T15:57:28;18.00;99.90
49465;DHT22;35358;49.342;8.802;2023-03-30T15:59:57;17.60;99.90
49465;DHT22;35358;49.342;8.802;2023-03-30T16:02:37;17.00;99.90
49465;DHT22;35358;49.342;8.802;2023-03-30T16:05:06;16.90;99.90
49465;DHT22;35358;49.342;8.802;2023-03-30T16:07:32;16.90;99.90
49465;DHT22;35358;49.342;8.802;2023-03-30T16:10:01;16.80;99.90
49465;DHT22;35358;49.342;8.802;2023-03-30T16:12:30;16.60;99.90
49465;DHT22;35358;49.342;8.802;2023-03-30T16:14:57;16.50;99.90
49465;DHT22;35358;49.342;8.802;2023-03-30T16:17:22;16.90;99.90
49465;DHT22;35358;49.342;8.802;2023-03-30T16:19:53;17.10;99.90
49465;DHT22;35358;49.342;8.802;2023-03-30T16:22:18;16.90;99.90
49465;DHT22;35358;49.342;8.802;2023-03-30T16:24:44;17.20;99.90
49465;DHT22;35358;49.342;8.802;2023-03-30T16:27:11;17.50;99.90
49465;DHT22;35358;49.342;8.802;2023-03-30T16:29:40;17.40;99.90
49465;DHT22;35358;49.342;8.802;2023-03-30T16:32:05;17.70;99.90
49465;DHT22;35358;49.342;8.802;2023-03-30T16:34:31;17.50;99.90
49465;DHT22;35358;49.342;8.802;2023-03-30T16:36:59;17.00;99.90
49465;DHT22;35358;49.342;8.802;2023-03-30T16:39:26;16.70;99.90
49465;DHT22;35358;49.342;8.802;2023-03-30T16:41:53;16.50;99.90
49465;DHT22;35358;49.342;8.802;2023-03-30T16:44:20;16.30;99.90
49465;DHT22;35358;49.342;8.802;2023-03-30T16:46:51;16.10;99.90
49465;DHT22;35358;49.342;8.802;2023-03-30T16:49:23;16.00;99.90
49465;DHT22;35358;49.342;8.802;2023-03-30T16:51:50;15.90;99.90
49465;DHT22;35358;49.342;8.802;2023-03-30T16:54:17;15.80;99.90
49465;DHT22;35358;49.342;8.802;2023-03-30T16:56:45;15.70;99.90
49465;DHT22;35358;49.342;8.802;2023-03-30T16:59:20;15.80;99.90
49465;DHT22;35358;49.342;8.802;2023-03-30T17:01:48;15.80;99.90
49465;DHT22;35358;49.342;8.802;2023-03-30T17:04:15;15.70;99.90
49465;DHT22;35358;49.342;8.802;2023-03-30T17:06:42;15.60;99.90
49465;DHT22;35358;49.342;8.802;2023-03-30T17:09:12;15.70;99.90
49465;DHT22;35358;49.342;8.802;2023-03-30T17:11:41;15.70;99.90
49465;DHT22;35358;49.342;8.802;2023-03-30T17:14:06;15.70;99.90
49465;DHT22;35358;49.342;8.802;2023-03-30T17:16:32;15.70;99.90
49465;DHT22;35358;49.342;8.802;2023-03-30T17:18:58;15.60;99.90
49465;DHT22;35358;49.342;8.802;2023-03-30T17:21:24;15.60;99.90
49465;DHT22;35358;49.342;8.802;2023-03-30T17:23:49;15.60;99.90
49465;DHT22;35358;49.342;8.802;2023-03-30T17:26:15;15.50;99.90
49465;DHT22;35358;49.342;8.802;2023-03-30T17:28:41;15.40;99.90
49465;DHT22;35358;49.342;8.802;2023-03-30T17:31:17;15.40;99.90
49465;DHT22;35358;49.342;8.802;2023-03-30T17:33:46;15.40;99.90
49465;DHT22;35358;49.342;8.802;2023-03-30T17:36:23;15.30;99.90
49465;DHT22;35358;49.342;8.802;2023-03-30T17:38:50;15.30;99.90
49465;DHT22;35358;49.342;8.802;2023-03-30T17:41:21;15.20;99.90
49465;DHT22;35358;49.342;8.802;2023-03-30T17:43:51;15.20;99.90
49465;DHT22;35358;49.342;8.802;2023-03-30T17:46:19;15.20;99.90
49465;DHT22;35358;49.342;8.802;2023-03-30T17:48:45;15.10;99.90
49465;DHT22;35358;49.342;8.802;2023-03-30T17:51:11;15.00;99.90
49465;DHT22;35358;49.342;8.802;2023-03-30T17:53:37;14.90;99.90
49465;DHT22;35358;49.342;8.802;2023-03-30T17:56:02;14.90;99.90
49465;DHT22;35358;49.342;8.802;2023-03-30T17:58:32;14.90;99.90
49465;DHT22;35358;49.342;8.802;2023-03-30T18:01:00;14.80;99.90
49465;DHT22;35358;49.342;8.802;2023-03-30T18:03:26;14.70;99.90
49465;DHT22;35358;49.342;8.802;2023-03-30T18:05:59;14.70;99.90
49465;DHT22;35358;49.342;8.802;2023-03-30T18:08:25;14.70;99.90
49465;DHT22;35358;49.342;8.802;2023-03-30T18:10:58;14.60;99.90
49465;DHT22;35358;49.342;8.802;2023-03-30T18:13:27;14.50;99.90
49465;DHT22;35358;49.342;8.802;2023-03-30T18:15:57;14.40;99.90